createdAt,value
2022-10-17T00:01:18.573Z,16.10
2022-10-17T00:03:50.861Z,16.10
2022-10-17T00:06:22.898Z,16.10
2022-10-17T00:14:00.591Z,16.10
2022-10-17T00:16:39.723Z,16.10
2022-10-17T00:19:12.286Z,16.10
2022-10-17T00:21:44.165Z,16.00
2022-10-17T00:24:16.815Z,16.00
2022-10-17T00:26:48.714Z,16.00
2022-10-17T00:29:21.271Z,15.90
2022-10-17T00:31:57.423Z,15.90
2022-10-17T00:34:31.451Z,15.90
2022-10-17T00:37:03.323Z,15.90
2022-10-17T00:39:35.979Z,16.00
2022-10-17T00:42:12.252Z,16.00
2022-10-17T00:44:47.440Z,16.10
2022-10-17T00:47:22.554Z,16.10
2022-10-17T00:49:55.480Z,16.00
2022-10-17T00:52:30.504Z,16.00
2022-10-17T00:55:15.551Z,16.00
2022-10-17T00:57:47.942Z,16.00
2022-10-17T01:00:21.091Z,16.00
2022-10-17T01:05:27.393Z,16.00
2022-10-17T01:08:00.651Z,16.00
2022-10-17T01:10:46.582Z,16.00
2022-10-17T01:13:32.967Z,16.00
2022-10-17T01:16:31.549Z,16.10
2022-10-17T01:19:37.954Z,16.00
2022-10-17T01:22:22.915Z,16.00
2022-10-17T01:25:20.302Z,16.00
2022-10-17T01:28:19.675Z,15.90
2022-10-17T01:31:15.324Z,15.70
2022-10-17T01:33:54.312Z,15.90
2022-10-17T01:36:54.030Z,15.80
2022-10-17T01:40:06.779Z,15.80
2022-10-17T01:42:55.346Z,15.70
2022-10-17T01:45:59.265Z,15.80
2022-10-17T01:48:37.696Z,15.80
2022-10-17T01:51:19.044Z,15.70
2022-10-17T01:54:19.590Z,15.70
2022-10-17T01:56:58.888Z,15.60
2022-10-17T01:59:43.491Z,15.70
2022-10-17T02:02:17.898Z,15.70
2022-10-17T02:04:52.528Z,15.60
2022-10-17T02:07:25.528Z,15.50
2022-10-17T02:10:31.452Z,15.40
2022-10-17T02:13:21.731Z,15.40
2022-10-17T02:16:44.508Z,15.40
2022-10-17T02:19:22.582Z,15.40
2022-10-17T02:22:07.934Z,15.50
2022-10-17T02:24:46.014Z,15.50
2022-10-17T02:27:39.953Z,15.60
2022-10-17T02:30:39.988Z,15.60
2022-10-17T02:33:20.652Z,15.50
2022-10-17T02:35:58.841Z,15.50
2022-10-17T02:38:31.795Z,15.50
2022-10-17T02:41:07.627Z,15.40
2022-10-17T02:43:40.487Z,15.60
2022-10-17T02:46:21.071Z,15.50
2022-10-17T02:49:06.121Z,15.40
2022-10-17T02:52:13.026Z,15.40
2022-10-17T02:55:16.056Z,15.30
2022-10-17T02:57:56.963Z,15.30
2022-10-17T03:00:30.406Z,15.50
2022-10-17T03:03:22.179Z,15.40
2022-10-17T03:05:54.824Z,15.40
2022-10-17T03:08:29.525Z,15.30
2022-10-17T03:11:03.027Z,15.20
2022-10-17T03:16:12.870Z,15.00
2022-10-17T03:18:47.934Z,15.00
2022-10-17T03:23:54.681Z,15.00
2022-10-17T03:29:03.260Z,14.90
2022-10-17T03:36:45.324Z,14.80
2022-10-17T03:39:18.206Z,14.90
2022-10-17T03:41:50.160Z,14.90
2022-10-17T03:44:23.684Z,14.90
2022-10-17T03:46:55.689Z,15.00
2022-10-17T03:49:28.263Z,15.00
2022-10-17T03:52:00.225Z,15.00
2022-10-17T03:57:05.874Z,15.00
2022-10-17T03:59:38.651Z,15.00
2022-10-17T04:02:17.114Z,15.00
2022-10-17T04:07:22.304Z,15.10
2022-10-17T04:09:55.152Z,15.10
2022-10-17T04:12:28.198Z,15.00
2022-10-17T04:15:01.191Z,15.00
2022-10-17T04:20:12.420Z,15.00
2022-10-17T04:22:44.473Z,14.90
2022-10-17T04:25:18.344Z,14.90
2022-10-17T04:27:51.730Z,15.00
2022-10-17T04:30:27.124Z,14.90
2022-10-17T04:32:59.054Z,14.90
2022-10-17T04:35:33.714Z,14.90
2022-10-17T04:38:08.872Z,14.80
2022-10-17T04:40:42.136Z,14.80
2022-10-17T04:43:14.214Z,14.70
2022-10-17T04:45:46.872Z,14.80
2022-10-17T04:50:56.138Z,14.90
2022-10-17T04:53:45.642Z,14.90
2022-10-17T04:56:23.021Z,15.00
2022-10-17T04:58:55.392Z,14.90
2022-10-17T05:01:27.550Z,14.90
2022-10-17T05:04:02.072Z,14.70
2022-10-17T05:06:34.760Z,14.50
2022-10-17T05:11:55.239Z,14.40
2022-10-17T05:14:28.350Z,14.40
2022-10-17T05:17:00.458Z,14.40
2022-10-17T05:19:34.501Z,14.30
2022-10-17T05:34:57.615Z,14.50
2022-10-17T05:37:31.981Z,14.60
2022-10-17T05:45:17.179Z,14.60
2022-10-17T05:47:49.198Z,14.60
2022-10-17T05:50:24.310Z,14.60
2022-10-17T05:56:01.423Z,14.70
2022-10-17T05:58:53.263Z,14.70
2022-10-17T06:04:08.184Z,14.70
2022-10-17T06:06:41.078Z,14.80
2022-10-17T06:11:51.379Z,14.90
2022-10-17T06:19:33.760Z,14.70
2022-10-17T06:24:38.822Z,14.80
2022-10-17T06:29:48.030Z,14.90
2022-10-17T06:32:19.980Z,15.00
2022-10-17T06:37:25.424Z,15.00
2022-10-17T06:39:58.368Z,14.90
2022-10-17T06:42:31.452Z,14.90
2022-10-17T06:45:19.237Z,15.00
2022-10-17T06:48:12.044Z,15.10
2022-10-17T06:51:14.430Z,15.30
2022-10-17T06:56:46.081Z,15.50
2022-10-17T06:59:37.308Z,15.50
2022-10-17T07:04:50.152Z,15.70
2022-10-17T07:07:22.078Z,15.80
2022-10-17T07:09:54.666Z,15.90
2022-10-17T07:12:26.843Z,15.90
2022-10-17T07:14:59.452Z,16.00
2022-10-17T07:17:31.996Z,16.00
2022-10-17T07:22:39.971Z,16.20
2022-10-17T07:27:57.002Z,16.40
2022-10-17T07:33:07.506Z,16.60
2022-10-17T07:35:41.008Z,16.60
2022-10-17T07:40:46.079Z,17.00
2022-10-17T07:43:18.685Z,17.10
2022-10-17T07:48:25.126Z,17.40
2022-10-17T07:50:57.304Z,17.40
2022-10-17T07:53:30.040Z,17.30
2022-10-17T07:56:08.197Z,17.20
2022-10-17T07:58:40.947Z,17.20
2022-10-17T08:01:15.531Z,17.10
2022-10-17T08:03:49.083Z,17.30
2022-10-17T08:08:53.914Z,17.40
2022-10-17T08:11:25.827Z,17.50
2022-10-17T08:19:04.552Z,19.30
2022-10-17T08:21:36.721Z,20.10
2022-10-17T08:24:09.350Z,20.90
2022-10-17T08:26:43.501Z,21.50
2022-10-17T08:29:17.986Z,22.00
2022-10-17T08:31:52.396Z,22.70
2022-10-17T08:37:03.517Z,22.80
2022-10-17T08:39:36.212Z,23.30
2022-10-17T08:42:27.646Z,23.40
2022-10-17T08:45:21.596Z,23.00
2022-10-17T08:48:01.448Z,22.90
2022-10-17T08:50:48.081Z,22.80
2022-10-17T08:53:39.001Z,22.70
2022-10-17T08:56:36.531Z,23.00
2022-10-17T08:59:29.970Z,23.00
2022-10-17T09:02:14.931Z,22.80
2022-10-17T09:05:10.487Z,23.10
2022-10-17T09:07:50.048Z,23.50
2022-10-17T09:10:47.866Z,23.20
2022-10-17T09:13:37.791Z,22.90
2022-10-17T09:16:37.293Z,22.40
2022-10-17T09:19:24.756Z,22.70
2022-10-17T09:22:21.579Z,23.20
2022-10-17T09:25:07.124Z,23.50
2022-10-17T09:27:47.917Z,23.50
2022-10-17T09:31:00.157Z,23.50
2022-10-17T09:33:53.896Z,23.60
2022-10-17T09:36:33.895Z,24.10
2022-10-17T09:39:19.706Z,24.30
2022-10-17T09:41:55.856Z,24.40
2022-10-17T09:44:35.207Z,24.60
2022-10-17T09:47:21.301Z,24.50
2022-10-17T09:52:41.398Z,24.40
2022-10-17T09:55:32.015Z,24.50
2022-10-17T09:58:07.855Z,24.70
2022-10-17T10:00:46.591Z,24.70
2022-10-17T10:03:22.693Z,25.00
2022-10-17T10:06:17.592Z,24.70
2022-10-17T10:08:58.798Z,24.60
2022-10-17T10:11:55.589Z,24.60
2022-10-17T10:14:36.545Z,24.70
2022-10-17T10:17:38.768Z,24.60
2022-10-17T10:20:34.866Z,24.70
2022-10-17T10:23:19.987Z,24.70
2022-10-17T10:28:35.993Z,24.70
2022-10-17T10:31:09.891Z,25.00
2022-10-17T10:33:48.204Z,25.60
2022-10-17T10:36:23.685Z,25.90
2022-10-17T10:39:01.263Z,25.90
2022-10-17T10:41:48.103Z,26.10
2022-10-17T10:44:26.622Z,26.00
2022-10-17T10:47:17.477Z,26.30
2022-10-17T10:49:53.461Z,26.10
2022-10-17T10:52:52.269Z,25.90
2022-10-17T10:55:31.161Z,26.00
2022-10-17T10:58:24.686Z,26.10
2022-10-17T11:01:04.964Z,26.50
2022-10-17T11:03:57.265Z,25.50
2022-10-17T11:06:37.115Z,26.90
2022-10-17T11:09:53.430Z,27.00
2022-10-17T11:12:33.379Z,27.30
2022-10-17T11:15:37.426Z,27.20
2022-10-17T11:18:41.043Z,27.50
2022-10-17T11:21:45.494Z,27.70
2022-10-17T11:24:26.046Z,27.50
2022-10-17T11:27:05.447Z,27.50
2022-10-17T11:29:40.596Z,27.90
2022-10-17T11:32:27.096Z,27.80
2022-10-17T11:35:16.943Z,27.60
2022-10-17T11:38:25.980Z,27.30
2022-10-17T11:41:01.468Z,26.80
2022-10-17T11:43:49.369Z,26.80
2022-10-17T11:46:25.948Z,26.40
2022-10-17T11:49:20.405Z,26.50
2022-10-17T11:52:43.959Z,26.20
2022-10-17T11:55:20.816Z,26.00
2022-10-17T11:58:37.481Z,26.20
2022-10-17T12:01:29.283Z,26.00
2022-10-17T12:04:31.776Z,25.90
2022-10-17T12:07:30.977Z,25.80
2022-10-17T12:12:56.306Z,26.30
2022-10-17T12:15:30.035Z,26.20
2022-10-17T12:18:04.413Z,26.40
2022-10-17T12:20:38.177Z,26.10
2022-10-17T12:23:13.796Z,25.90
2022-10-17T12:26:04.822Z,25.90
2022-10-17T12:28:38.039Z,25.80
2022-10-17T12:33:51.474Z,25.60
2022-10-17T12:39:02.289Z,26.10
2022-10-17T12:41:41.185Z,25.80
2022-10-17T12:44:13.080Z,25.90
2022-10-17T12:47:09.951Z,25.70
2022-10-17T12:49:47.090Z,25.80
2022-10-17T12:58:04.676Z,25.60
2022-10-17T13:00:59.429Z,25.80
2022-10-17T13:03:45.541Z,25.80
2022-10-17T13:06:29.877Z,25.90
2022-10-17T13:09:06.202Z,25.80
2022-10-17T13:11:40.509Z,25.60
2022-10-17T13:14:14.762Z,25.30
2022-10-17T13:17:10.790Z,25.50
2022-10-17T13:19:46.514Z,25.50
2022-10-17T13:22:32.358Z,26.60
2022-10-17T13:25:20.665Z,25.40
2022-10-17T13:28:07.050Z,25.40
2022-10-17T13:30:40.282Z,25.20
2022-10-17T13:33:35.772Z,25.40
2022-10-17T13:36:16.249Z,25.40
2022-10-17T13:38:48.411Z,25.50
2022-10-17T13:41:36.914Z,25.60
2022-10-17T13:44:26.150Z,25.40
2022-10-17T13:46:58.540Z,25.20
2022-10-17T13:49:37.381Z,25.40
2022-10-17T13:52:21.935Z,25.40
2022-10-17T13:54:54.795Z,25.20
2022-10-17T13:57:30.874Z,25.10
2022-10-17T14:00:31.615Z,25.10
2022-10-17T14:03:06.373Z,25.10
2022-10-17T14:06:03.239Z,25.10
2022-10-17T14:08:38.255Z,25.00
2022-10-17T14:11:38.658Z,25.00
2022-10-17T14:14:26.127Z,25.00
2022-10-17T14:16:58.241Z,25.00
2022-10-17T14:19:34.251Z,24.80
2022-10-17T14:22:21.248Z,24.90
2022-10-17T14:27:35.002Z,24.90
2022-10-17T14:30:51.700Z,25.00
2022-10-17T14:33:24.693Z,24.70
2022-10-17T14:36:01.091Z,24.70
2022-10-17T14:38:33.169Z,24.70
2022-10-17T14:41:41.826Z,24.70
2022-10-17T14:44:33.064Z,24.60
2022-10-17T14:47:38.141Z,24.60
2022-10-17T14:50:25.179Z,24.60
2022-10-17T14:53:12.716Z,24.60
2022-10-17T14:55:57.569Z,24.50
2022-10-17T14:58:33.454Z,24.50
2022-10-17T15:01:05.456Z,24.40
2022-10-17T15:06:28.186Z,24.40
2022-10-17T15:09:01.285Z,24.40
2022-10-17T15:11:33.397Z,24.30
2022-10-17T15:14:06.090Z,24.30
2022-10-17T15:16:39.443Z,24.20
2022-10-17T15:19:14.170Z,24.20
2022-10-17T15:24:20.101Z,24.20
2022-10-17T15:29:24.820Z,24.10
2022-10-17T15:31:56.922Z,24.10
2022-10-17T15:37:02.016Z,24.00
2022-10-17T15:39:34.549Z,23.90
2022-10-17T15:42:11.908Z,23.90
2022-10-17T15:47:33.641Z,23.80
2022-10-17T15:50:09.154Z,23.80
2022-10-17T15:52:43.907Z,23.70
2022-10-17T15:55:17.535Z,23.60
2022-10-17T16:00:24.471Z,23.50
2022-10-17T16:08:04.833Z,23.10
2022-10-17T16:10:40.359Z,23.00
2022-10-17T16:13:22.393Z,22.80
2022-10-17T16:18:27.267Z,22.90
2022-10-17T16:20:59.954Z,22.80
2022-10-17T16:26:05.142Z,22.90
2022-10-17T16:31:37.112Z,22.40
2022-10-17T16:34:13.128Z,22.00
2022-10-17T16:36:45.740Z,21.60
2022-10-17T16:39:17.803Z,21.50
2022-10-17T16:44:28.465Z,21.10
2022-10-17T16:49:33.515Z,20.80
2022-10-17T16:52:06.146Z,20.70
2022-10-17T16:54:38.146Z,20.50
2022-10-17T16:57:10.820Z,20.20
2022-10-17T16:59:42.751Z,20.30
2022-10-17T17:07:29.848Z,20.10
2022-10-17T17:10:02.081Z,20.00
2022-10-17T17:12:36.150Z,20.00
2022-10-17T17:17:52.256Z,19.80
2022-10-17T17:25:34.790Z,19.50
2022-10-17T17:33:13.199Z,19.30
2022-10-17T17:35:45.149Z,19.20
2022-10-17T17:38:17.755Z,19.10
2022-10-17T17:40:51.169Z,19.00
2022-10-17T17:43:23.985Z,18.90
2022-10-17T17:45:56.201Z,18.90
2022-10-17T17:48:28.767Z,18.90
2022-10-17T17:51:08.960Z,18.80
2022-10-17T17:53:41.702Z,18.80
2022-10-17T17:56:21.845Z,18.80
2022-10-17T17:59:01.643Z,18.80
2022-10-17T18:01:39.127Z,18.60
2022-10-17T18:04:12.231Z,18.60
2022-10-17T18:11:49.738Z,18.40
2022-10-17T18:14:24.196Z,18.40
2022-10-17T18:22:01.473Z,18.30
2022-10-17T18:24:34.142Z,18.30
2022-10-17T18:27:06.092Z,18.20
2022-10-17T18:29:39.802Z,18.20
2022-10-17T18:34:45.857Z,18.30
2022-10-17T18:39:53.252Z,18.40
2022-10-17T18:44:58.178Z,18.20
2022-10-17T18:47:30.360Z,18.10
2022-10-17T18:52:35.458Z,18.10
2022-10-17T18:55:08.675Z,18.00
2022-10-17T18:57:40.581Z,18.00
2022-10-17T19:02:45.991Z,17.70
2022-10-17T19:05:18.301Z,17.60
2022-10-17T19:12:55.531Z,17.60
2022-10-17T19:18:00.693Z,17.60
2022-10-17T19:20:33.255Z,17.60
2022-10-17T19:23:05.258Z,17.50
2022-10-17T19:28:10.132Z,17.40
2022-10-17T19:30:43.385Z,17.30
2022-10-17T19:33:15.410Z,17.30
2022-10-17T19:36:04.482Z,17.20
2022-10-17T19:38:37.304Z,17.30
2022-10-17T19:41:12.508Z,17.20
2022-10-17T19:43:45.068Z,17.10
2022-10-17T19:46:24.601Z,17.10
2022-10-17T19:48:57.185Z,17.10
2022-10-17T19:51:30.518Z,17.00
2022-10-17T19:54:02.922Z,17.00
2022-10-17T19:56:39.154Z,16.90
2022-10-17T19:59:14.579Z,16.90
2022-10-17T20:04:21.913Z,16.70
2022-10-17T20:12:04.946Z,16.70
2022-10-17T20:17:13.622Z,16.80
2022-10-17T20:19:45.569Z,16.70
2022-10-17T20:22:17.798Z,16.80
2022-10-17T20:24:49.929Z,16.70
2022-10-17T20:27:27.418Z,16.60
2022-10-17T20:30:01.901Z,16.60
2022-10-17T20:32:39.575Z,16.60
2022-10-17T20:37:44.741Z,16.50
2022-10-17T20:43:10.619Z,16.40
2022-10-17T20:45:51.336Z,16.40
2022-10-17T20:48:24.768Z,16.50
2022-10-17T20:50:56.801Z,16.60
2022-10-17T20:56:19.984Z,16.60
2022-10-17T20:58:55.222Z,16.60
2022-10-17T21:01:29.009Z,16.60
2022-10-17T21:04:21.278Z,16.60
2022-10-17T21:06:54.208Z,16.50
2022-10-17T21:09:26.801Z,16.60
2022-10-17T21:11:58.791Z,16.60
2022-10-17T21:17:05.795Z,16.60
2022-10-17T21:19:39.837Z,16.60
2022-10-17T21:22:11.751Z,16.60
2022-10-17T21:24:44.745Z,16.50
2022-10-17T21:27:18.980Z,16.50
2022-10-17T21:29:52.417Z,16.50
2022-10-17T21:32:40.039Z,16.50
2022-10-17T21:35:17.371Z,16.50
2022-10-17T21:37:49.366Z,16.50
2022-10-17T21:40:21.709Z,16.40
2022-10-17T21:42:53.649Z,16.40
2022-10-17T21:48:18.622Z,16.30
2022-10-17T21:50:58.616Z,16.30
2022-10-17T21:53:31.596Z,16.30
2022-10-17T21:56:07.931Z,16.40
2022-10-17T21:58:40.788Z,16.50
2022-10-17T22:01:28.646Z,16.50
2022-10-17T22:04:05.104Z,16.50
2022-10-17T22:06:41.315Z,16.50
2022-10-17T22:09:19.700Z,16.50
2022-10-17T22:11:57.577Z,16.60
2022-10-17T22:14:29.828Z,16.60
2022-10-17T22:17:01.729Z,16.60
2022-10-17T22:19:34.495Z,18.20
2022-10-17T22:24:39.380Z,16.60
2022-10-17T22:27:11.359Z,16.60
2022-10-17T22:29:43.957Z,16.60
2022-10-17T22:32:20.038Z,16.50
2022-10-17T22:34:55.069Z,16.50
2022-10-17T22:42:34.837Z,16.40
2022-10-17T22:45:07.693Z,16.40
2022-10-17T22:47:40.064Z,16.50
2022-10-17T22:50:11.990Z,16.50
2022-10-17T22:55:17.182Z,16.50
2022-10-17T22:57:49.802Z,16.50
2022-10-17T23:00:21.764Z,16.60
2022-10-17T23:02:55.355Z,16.60
2022-10-17T23:05:27.238Z,16.70
2022-10-17T23:07:59.806Z,16.80
2022-10-17T23:13:04.772Z,16.90
2022-10-17T23:15:37.172Z,16.80
2022-10-17T23:18:10.639Z,16.90
2022-10-17T23:20:42.507Z,16.90
2022-10-17T23:23:16.174Z,16.90
2022-10-17T23:25:48.867Z,16.90
2022-10-17T23:28:21.464Z,16.90
2022-10-17T23:30:53.360Z,16.90
2022-10-17T23:33:25.959Z,17.00
2022-10-17T23:35:57.942Z,17.00
2022-10-17T23:38:30.526Z,16.90
2022-10-17T23:41:02.717Z,17.00
2022-10-17T23:43:35.368Z,17.00
2022-10-17T23:48:42.042Z,17.00
2022-10-17T23:51:14.161Z,17.10
2022-10-17T23:53:46.687Z,17.00
2022-10-17T23:58:52.841Z,17.00
